Latest Weather Observations for Hobart Airport

IDT60801

Issued at 12:02 pm EDT Monday 22 December 2014 (issued every 30 minutes, with the page automatically refreshed every 10 minutes)

About weather observations | Map of weather stations | Latest weather observations for TAS | Other Formats
Station Details ID: 094008 Name: HOBART AIRPORT Lat: -42.83 Lon: 147.50 Height: 4.0 m
Data from the previous 72 hours. | See also: Recent months at Hobart Airport
Date/Time
EDT
Temp
°C
App
Temp
°C
Dew
Point
Rel
Hum
%
Delta-T
°C
Wind Press
QNH
hPa
Press
MSL
hPa
Rain
since 9 am
mm
Dir
 
Spd
km/h
Gust
km/h
Spd
kts
Gust
kts
22/11:30am 19.9 16.2 11.4 58 4.7 SSE 22 28 12 15 1015.0 1015.0 0.0
22/11:00am 18.7 14.9 11.0 61 4.2 SSE 22 30 12 16 1015.3 1015.3 0.0
22/10:00am 17.3 14.9 10.1 62 3.8 SE 13 19 7 10 1015.9 1015.9 0.0
22/09:30am 17.1 15.4 9.7 61 3.9 NE 9 13 5 7 1016.0 1016.0 0.0
22/09:00am 16.3 14.6 9.8 65 3.4 NE 9 11 5 6 1016.2 1016.2 0.0
22/08:30am 15.7 14.5 10.2 70 2.9 ESE 7 13 4 7 1015.9 1015.9 0.0
22/08:00am 15.2 14.5 10.0 71 2.7 S 4 9 2 5 1015.7 1015.7 0.0
22/07:30am 13.7 11.4 9.0 73 2.4 WNW 11 13 6 7 1015.6 1015.6 0.0
22/05:30am 11.7 10.0 9.7 87 1.0 NW 9 11 5 6 1014.6 1014.6 0.0
22/05:27am 11.3 10.1 9.7 90 0.8 NW 6 11 3 6 1014.6 1014.6 0.0
22/05:15am 12.2 12.3 10.1 87 1.1 CALM 0 0 0 0 1014.5 1014.5 0.0
22/05:00am 12.1 11.4 9.9 86 1.1 SSE 4 7 2 4 1014.5 1014.5 0.0
22/04:57am 12.1 11.0 9.9 86 1.1 SSE 6 7 3 4 1014.5 1014.5 0.0
22/04:30am 13.3 12.9 11.2 87 1.1 ESE 4 9 2 5 1014.3 1014.3 0.0
22/04:00am 13.4 12.5 11.3 87 1.1 NNW 7 11 4 6 1014.3 1014.3 0.0
22/03:30am 13.8 12.2 11.4 85 1.3 SE 11 17 6 9 1014.2 1014.2 0.0
22/03:11am 12.6 11.3 11.1 91 0.8 SE 9 13 5 7 1014.2 1014.2 0.0
22/03:00am 12.3 11.4 10.8 90 0.8 ENE 6 11 3 6 1014.2 1014.2 0.0
22/02:30am 12.0 12.2 10.4 90 0.8 CALM 0 7 0 4 1014.2 1014.2 0.0
22/02:00am 11.9 12.1 10.7 92 0.6 CALM 0 0 0 0 1014.4 1014.4 0.0
22/01:30am 12.7 11.6 10.6 87 1.1 NW 7 9 4 5 1014.1 1014.1 0.0
22/01:00am 12.8 12.3 10.9 88 1.0 WNW 4 7 2 4 1014.1 1014.1 0.0
22/12:30am 13.6 14.0 11.3 86 1.2 CALM 0 4 0 2 1014.1 1014.1 0.0
 
Date/Time
EDT
Temp
°C
App
Temp
°C
Dew
Point
Rel
Hum
%
Delta-T
°C
Wind Press
QNH
hPa
Press
MSL
hPa
Rain
since 9 am
mm
Dir
 
Spd
km/h
Gust
km/h
Spd
kts
Gust
kts
21/11:30pm 14.4 13.1 11.2 81 1.7 SSW 9 11 5 6 1013.7 1013.7 0.0
21/11:00pm 14.7 12.8 10.5 76 2.2 S 11 13 6 7 1013.6 1013.6 0.0
21/10:30pm 14.3 12.8 10.5 78 2.0 SE 9 9 5 5 1013.5 1013.5 0.0
21/10:00pm 15.2 14.1 10.5 73 2.5 W 7 13 4 7 1013.2 1013.2 0.0
21/09:00pm 16.0 14.9 11.8 76 2.3 SE 9 13 5 7 1012.0 1012.0 0.0
21/08:30pm 17.7 15.0 9.1 57 4.5 SSE 13 17 7 9 1011.7 1011.7 0.0
21/08:00pm 18.8 15.7 8.8 52 5.2 S 15 17 8 9 1011.5 1011.5 0.0
21/07:30pm 19.0 16.2 8.4 50 5.5 S 13 19 7 10 1011.1 1011.1 0.0
21/07:00pm 19.3 15.8 8.8 50 5.5 S 17 24 9 13 1010.7 1010.7 0.0
21/06:30pm 19.8 15.7 8.7 48 5.8 SSE 20 32 11 17 1010.3 1010.3 0.0
21/05:30pm 18.7 12.5 10.1 57 4.6 S 33 44 18 24 1010.0 1010.0 0.0
21/05:00pm 18.7 12.6 11.6 63 3.9 SSE 35 44 19 24 1009.8 1009.8 0.0
21/04:38pm 21.5 17.0 12.7 57 5.0 SSE 28 52 15 28 1009.4 1009.3 0.0
21/04:30pm 22.8 18.7 10.0 44 7.0 SSE 22 28 12 15 1009.4 1009.3 0.0
21/04:00pm 22.2 17.7 9.9 45 6.7 SSE 24 32 13 17 1009.1 1009.0 0.0
21/03:30pm 23.1 19.8 7.9 37 8.0 SE 15 22 8 12 1008.9 1008.8 0.0
21/03:00pm 22.9 19.7 8.4 39 7.7 SE 15 22 8 12 1009.0 1008.9 0.0
21/02:30pm 22.0 18.1 9.4 44 6.8 SE 20 28 11 15 1009.4 1009.3 0.0
21/02:00pm 21.9 17.5 9.0 43 6.9 SSE 22 28 12 15 1009.7 1009.7 0.0
21/01:30pm 21.4 17.1 9.5 46 6.4 SSE 22 30 12 16 1010.1 1010.1 0.0
21/01:00pm 21.9 19.1 8.7 42 7.0 SSE 13 19 7 10 1010.6 1010.6 0.0
21/12:30pm 23.3 20.5 5.2 31 9.1 W 9 19 5 10 1010.7 1010.7 0.0
21/12:00pm 22.1 18.4 6.4 36 8.0 N 15 19 8 10 1011.3 1011.3 0.0
21/11:30am 21.5 17.8 8.1 42 7.0 WNW 17 24 9 13 1011.8 1011.8 0.0
21/11:00am 19.7 16.5 8.6 48 5.8 WNW 15 22 8 12 1012.1 1012.1 0.0
21/10:30am 19.2 15.8 9.1 52 5.3 WNW 17 20 9 11 1012.9 1012.9 0.0
21/10:00am 17.9 15.2 8.8 55 4.7 WNW 13 17 7 9 1013.6 1013.6 0.0
21/09:30am 16.9 15.1 9.4 61 3.9 NW 9 15 5 8 1013.9 1013.9 0.0
21/09:00am 15.9 13.2 8.9 63 3.6 WNW 13 19 7 10 1014.3 1014.3 0.0
21/08:30am 14.6 12.3 9.1 69 2.8 NW 11 13 6 7 1014.4 1014.4 0.0
21/08:00am 14.1 12.6 9.0 71 2.6 NW 7 9 4 5 1014.0 1014.0 0.0
21/07:30am 13.8 12.0 9.3 74 2.3 NW 9 11 5 6 1014.4 1014.4 0.0
21/07:00am 13.9 11.9 8.7 71 2.6 NW 9 9 5 5 1014.6 1014.6 0.0
21/06:30am 13.4 13.2 9.1 75 2.2 CALM 0 0 0 0 1014.6 1014.6 0.0
21/06:00am 13.1 12.8 8.5 73 2.3 CALM 0 0 0 0 1015.6 1015.6 0.0
21/05:30am 12.9 12.1 8.3 73 2.3 WSW 2 7 1 4 1015.2 1015.2 0.0
21/05:00am 13.2 11.8 8.8 74 2.2 N 6 9 3 5 1014.8 1014.8 0.0
21/04:30am 13.0 11.4 8.6 74 2.2 N 7 9 4 5 1014.3 1014.3 0.0
21/04:00am 13.3 11.2 8.3 72 2.5 NNE 9 11 5 6 1014.3 1014.3 0.0
21/03:30am 13.2 11.5 8.4 72 2.4 ENE 7 7 4 4 1014.4 1014.4 0.0
21/03:00am 13.2 11.4 7.9 70 2.6 E 7 11 4 6 1014.6 1014.6 0.0
21/02:30am 13.2 11.0 7.9 70 2.6 ENE 9 13 5 7 1015.0 1015.0 0.0
21/02:00am 13.3 11.1 8.0 70 2.6 ENE 9 11 5 6 1015.4 1015.4 0.0
21/01:30am 13.4 11.8 7.9 69 2.7 ESE 6 7 3 4 1015.7 1015.7 0.0
21/01:00am 13.5 11.7 8.1 70 2.7 ENE 7 11 4 6 1015.9 1015.9 0.0
21/12:30am 13.5 11.4 8.3 71 2.6 NE 9 13 5 7 1016.2 1016.2 0.0
21/12:00am 13.5 11.4 8.3 71 2.6 NE 9 9 5 5 1016.2 1016.2 0.0
 
Date/Time
EDT
Temp
°C
App
Temp
°C
Dew
Point
Rel
Hum
%
Delta-T
°C
Wind Press
QNH
hPa
Press
MSL
hPa
Rain
since 9 am
mm
Dir
 
Spd
km/h
Gust
km/h
Spd
kts
Gust
kts
20/11:30pm 13.5 11.8 8.5 72 2.5 ENE 7 9 4 5 1016.3 1016.3 0.0
20/11:00pm 13.9 11.5 8.5 70 2.7 SE 11 20 6 11 1016.3 1016.3 0.0
20/10:30pm 13.6 11.5 8.2 70 2.7 E 9 11 5 6 1016.5 1016.5 0.0
20/10:00pm 13.4 10.6 8.6 73 2.4 SE 13 20 7 11 1016.5 1016.5 0.0
20/09:30pm 13.8 9.7 8.8 72 2.5 SSE 20 30 11 16 1016.3 1016.3 0.0
20/09:00pm 13.8 9.9 8.8 72 2.5 SE 19 28 10 15 1015.9 1015.9 0.0
20/08:30pm 14.1 9.0 9.2 72 2.5 SSE 26 32 14 17 1015.7 1015.7 0.0
20/08:00pm 14.1 8.6 9.2 72 2.5 SSE 28 35 15 19 1015.3 1015.3 0.0
20/07:30pm 14.9 8.8 9.7 71 2.7 SSE 32 39 17 21 1014.8 1014.8 0.0
20/07:00pm 15.2 9.4 9.4 68 3.0 SSE 30 37 16 20 1014.4 1014.4 0.0
20/06:30pm 16.5 10.9 10.3 67 3.3 SE 30 39 16 21 1014.1 1014.1 0.0
20/06:00pm 16.8 10.7 10.4 66 3.4 SE 33 43 18 23 1013.3 1013.3 0.0
20/05:30pm 17.6 11.6 10.1 61 4.0 SSE 32 39 17 21 1013.3 1013.3 0.0
20/05:00pm 17.3 11.4 10.4 64 3.7 SE 32 41 17 22 1013.2 1013.2 0.0
20/04:30pm 17.1 11.2 10.3 64 3.6 SSE 32 41 17 22 1013.0 1013.0 0.0
20/04:00pm 17.1 11.5 10.1 63 3.7 SSE 30 41 16 22 1012.6 1012.6 0.0
20/03:30pm 17.1 10.5 10.1 63 3.7 SSE 35 44 19 24 1012.3 1012.3 0.0
20/03:00pm 18.1 12.0 10.5 61 4.1 SSE 33 44 18 24 1012.3 1012.3 0.0
20/02:30pm 20.8 16.2 5.8 37 7.5 SW 19 32 10 17 1012.2 1012.2 0.0
20/02:00pm 20.5 13.9 4.1 34 7.9 WSW 28 35 15 19 1012.3 1012.3 0.0
20/01:30pm 20.9 15.0 3.8 32 8.2 W 24 37 13 20 1012.1 1012.1 0.0
20/01:00pm 22.4 16.4 3.3 28 9.2 WSW 24 33 13 18 1011.9 1011.9 0.0
20/12:30pm 21.6 15.1 2.8 29 8.9 W 26 35 14 19 1011.8 1011.8 0.0
20/12:00pm 20.3 15.1 3.5 33 8.0 SW 20 35 11 19 1011.9 1011.9 0.0
20/11:30am 19.6 14.7 5.3 39 7.0 WSW 20 33 11 18 1012.0 1012.0 0.0
20/11:00am 19.8 15.1 6.2 41 6.8 WSW 20 30 11 16 1012.0 1012.0 0.0
20/10:30am 19.1 14.2 8.3 49 5.6 WSW 24 32 13 17 1012.1 1012.1 0.0
20/10:00am 17.4 13.6 9.1 58 4.3 W 19 37 10 20 1012.1 1012.1 0.0
20/09:30am 17.7 14.7 9.1 57 4.5 WSW 15 20 8 11 1011.8 1011.8 0.0
20/09:00am 17.6 14.9 8.9 56 4.5 WNW 13 26 7 14 1011.7 1011.7 0.0
20/08:30am 17.5 13.4 8.8 56 4.5 NW 20 26 11 14 1011.6 1011.6 0.0
20/08:00am 16.0 11.8 8.3 60 3.9 NW 20 30 11 16 1011.1 1011.1 0.0
20/07:30am 15.1 11.4 8.1 63 3.5 NW 17 24 9 13 1010.8 1010.8 0.0
20/07:00am 15.3 11.5 7.5 59 3.9 NNW 17 26 9 14 1010.5 1010.5 0.0
20/06:30am 14.1 10.3 7.4 64 3.3 NNW 17 20 9 11 1010.3 1010.3 0.0
20/06:00am 13.6 10.1 7.0 64 3.2 NNW 15 19 8 10 1010.2 1010.2 0.0
20/05:30am 12.8 9.6 6.8 67 2.9 NNW 13 19 7 10 1010.3 1010.3 0.0
20/05:00am 12.9 9.3 6.7 66 3.0 N 15 19 8 10 1010.2 1010.2 0.0
20/04:30am 13.3 10.3 6.2 62 3.4 N 11 17 6 9 1010.1 1010.1 0.0
20/04:00am 13.8 10.4 5.8 58 3.8 NNW 13 20 7 11 1010.2 1010.2 0.0
20/03:30am 13.5 10.5 5.9 60 3.6 N 11 15 6 8 1010.6 1010.6 0.0
20/03:00am 14.0 10.1 5.3 55 4.1 N 15 24 8 13 1011.0 1011.0 0.0
20/02:30am 13.8 10.2 5.0 55 4.1 NNW 13 24 7 13 1011.4 1011.4 0.0
20/02:00am 14.0 9.5 4.2 51 4.5 NNW 17 28 9 15 1011.8 1011.8 0.0
20/01:30am 14.0 8.5 4.2 51 4.5 NW 22 32 12 17 1012.2 1012.2 0.0
20/01:00am 13.8 9.0 4.7 54 4.2 NW 19 28 10 15 1012.7 1012.7 0.0
20/12:30am 14.0 9.0 4.5 52 4.4 NNW 20 32 11 17 1013.0 1013.0 0.0
20/12:00am 13.9 8.0 3.8 50 4.6 NW 24 30 13 16 1013.3 1013.3 0.0
 
Date/Time
EDT
Temp
°C
App
Temp
°C
Dew
Point
Rel
Hum
%
Delta-T
°C
Wind Press
QNH
hPa
Press
MSL
hPa
Rain
since 9 am
mm
Dir
 
Spd
km/h
Gust
km/h
Spd
kts
Gust
kts
19/11:30pm 14.1 7.8 3.5 49 4.8 WNW 26 35 14 19 1013.8 1013.8 0.0
19/11:00pm 14.3 8.1 4.3 51 4.6 NW 26 35 14 19 1013.7 1013.7 0.0
19/10:30pm 14.7 9.5 2.6 44 5.4 WNW 19 28 10 15 1014.1 1014.1 0.0
19/10:00pm 15.1 9.2 2.0 41 5.8 WNW 22 30 12 16 1014.0 1014.0 0.0
19/09:30pm 15.3 10.3 1.3 38 6.1 WNW 17 22 9 12 1014.1 1014.1 0.0
19/09:00pm 15.4 10.0 1.5 39 6.1 WNW 19 28 10 15 1013.9 1013.9 0.0
19/08:30pm 15.6 10.9 0.8 36 6.4 NW 15 30 8 16 1013.6 1013.6 0.0
19/08:00pm 15.8 10.8 1.1 37 6.4 WNW 17 22 9 12 1013.6 1013.6 0.0
19/07:30pm 15.9 12.9 4.3 46 5.4 WSW 9 11 5 6 1013.6 1013.6 0.0
19/07:00pm 15.7 13.1 4.3 46 5.3 ESE 7 11 4 6 1013.1 1013.1 0.0
19/06:30pm 15.9 13.1 5.2 49 5.1 SE 9 15 5 8 1013.0 1013.0 0.0
19/06:00pm 16.1 12.9 5.2 48 5.2 SE 11 17 6 9 1012.9 1012.9 0.0
19/05:30pm 16.0 12.0 4.8 47 5.3 SE 15 20 8 11 1012.7 1012.7 0.0
19/05:00pm 15.8 11.4 4.5 47 5.3 SE 17 22 9 12 1012.4 1012.4 0.0
19/04:30pm 15.6 10.7 3.9 45 5.4 SE 19 22 10 12 1012.4 1012.4 0.0
19/04:00pm 16.0 11.6 4.8 47 5.3 SE 17 24 9 13 1012.5 1012.5 0.0
19/03:30pm 15.9 10.5 4.6 47 5.3 SE 22 30 12 16 1012.3 1012.3 0.0
19/03:00pm 17.4 14.7 2.5 37 6.8 ESE 6 13 3 7 1011.8 1011.8 0.0
19/02:30pm 16.6 11.9 3.4 41 6.1 SSE 17 24 9 13 1011.9 1011.9 0.0
19/02:00pm 15.2 9.8 4.5 49 5.0 SSE 22 32 12 17 1011.9 1011.9 0.0
19/01:30pm 14.5 9.7 5.7 55 4.2 SE 20 28 11 15 1012.3 1012.3 0.0
19/01:00pm 15.6 8.7 4.8 48 5.1 SSE 30 37 16 20 1011.9 1011.9 0.0
19/12:30pm 16.0 11.7 0.8 35 6.6 SSW 13 20 7 11 1012.0 1012.0 0.0

Other Formats:

Comma delimited format used in spreadsheet applications
http://www.bom.gov.au/fwo/IDT60801/IDT60801.94975.axf

JavaScript Object Notation format (JSON) in row-major order
http://www.bom.gov.au/fwo/IDT60801/IDT60801.94975.json